createdAt,value
2022-10-22T06:26:02.885Z,29.13
2022-10-22T06:28:30.227Z,28.95
2022-10-22T06:31:02.141Z,29.18
2022-10-22T06:33:31.690Z,29.16
2022-10-22T06:36:09.257Z,29.48
2022-10-22T06:38:36.394Z,29.06
2022-10-22T06:41:12.582Z,29.20
2022-10-22T06:43:40.894Z,29.22
2022-10-22T06:46:14.837Z,29.17
2022-10-22T06:48:49.468Z,29.06
2022-10-22T06:51:16.881Z,28.91
2022-10-22T06:53:44.027Z,29.09
2022-10-22T06:56:14.218Z,28.77
2022-10-22T06:58:42.358Z,29.19
2022-10-22T07:01:12.416Z,29.24
2022-10-22T07:03:40.928Z,29.06
2022-10-22T07:06:10.927Z,29.04
2022-10-22T07:08:39.000Z,29.21
2022-10-22T07:11:09.669Z,29.08
2022-10-22T07:13:36.991Z,29.00
2022-10-22T07:16:05.562Z,28.92
2022-10-22T07:18:33.677Z,29.00
2022-10-22T07:21:01.424Z,28.94
2022-10-22T07:23:29.581Z,28.86
2022-10-22T07:26:06.387Z,28.95
2022-10-22T07:28:35.362Z,29.30
2022-10-22T07:31:02.992Z,29.06
2022-10-22T07:33:30.176Z,29.43
2022-10-22T07:36:02.301Z,29.39
2022-10-22T07:38:30.060Z,29.31
2022-10-22T07:40:57.661Z,29.54
2022-10-22T07:43:25.208Z,29.24
2022-10-22T07:45:55.466Z,29.28
2022-10-22T07:48:24.160Z,29.35
2022-10-22T07:50:52.219Z,29.22
2022-10-22T07:53:24.963Z,29.44
2022-10-22T07:55:58.584Z,29.28
2022-10-22T07:58:26.136Z,28.95
2022-10-22T08:00:57.704Z,29.16
2022-10-22T08:03:25.115Z,29.13
2022-10-22T08:05:52.537Z,28.91
2022-10-22T08:08:25.889Z,28.87
2022-10-22T08:10:59.198Z,28.78
2022-10-22T08:13:27.961Z,29.25
2022-10-22T08:30:30.629Z,29.27
2022-10-22T08:33:49.740Z,28.93
2022-10-22T08:46:28.475Z,29.14
2022-10-22T08:49:03.593Z,28.91
2022-10-22T08:51:42.401Z,29.04
2022-10-22T09:03:28.647Z,29.01
2022-10-22T09:06:22.100Z,28.96
2022-10-22T09:12:43.185Z,28.76
2022-10-22T09:39:28.847Z,28.66
2022-10-22T09:43:00.709Z,28.93
2022-10-22T09:46:21.107Z,28.90
2022-10-22T09:49:56.785Z,28.93
2022-10-22T09:53:17.068Z,29.01
2022-10-22T09:56:54.318Z,28.96
2022-10-22T10:00:40.076Z,28.91
2022-10-22T10:09:01.077Z,28.78
2022-10-22T10:12:18.385Z,28.56
2022-10-22T10:18:55.906Z,28.83
2022-10-22T10:25:40.297Z,28.72
2022-10-22T10:28:46.724Z,28.65
2022-10-22T10:31:48.195Z,28.78
2022-10-22T10:34:40.029Z,29.19
2022-10-22T10:37:12.178Z,28.96
2022-10-22T10:40:18.311Z,28.58
2022-10-22T10:43:17.830Z,28.80
2022-10-22T10:46:36.928Z,28.93
2022-10-22T10:49:15.180Z,28.59
2022-10-22T10:51:59.541Z,28.51
2022-10-22T10:55:02.885Z,28.59
2022-10-22T10:57:51.857Z,28.89
2022-10-22T11:00:20.875Z,28.96
2022-10-22T11:03:30.090Z,28.56
2022-10-22T11:06:25.577Z,28.90
2022-10-22T11:09:16.319Z,28.50
2022-10-22T11:11:58.598Z,28.82
2022-10-22T11:14:36.492Z,28.64
2022-10-22T11:17:11.015Z,28.57
2022-10-22T11:19:59.928Z,28.56
2022-10-22T11:22:34.597Z,28.66
2022-10-22T11:25:14.006Z,28.33
2022-10-22T11:28:19.865Z,28.41
2022-10-22T11:30:54.123Z,28.56
2022-10-22T11:33:30.839Z,28.85
2022-10-22T11:36:01.839Z,28.79
2022-10-22T11:38:44.282Z,28.57
2022-10-22T11:41:21.574Z,28.62
2022-10-22T11:44:08.394Z,28.89
2022-10-22T11:51:20.015Z,28.81
2022-10-22T11:53:15.215Z,28.81
2022-10-22T11:56:32.476Z,28.60
2022-10-22T12:36:49.933Z,27.35
2022-10-22T12:39:27.290Z,27.15
2022-10-22T12:42:05.131Z,27.23
2022-10-22T12:44:55.556Z,26.89
2022-10-22T12:47:32.068Z,26.99
2022-10-22T12:49:59.446Z,26.63
2022-10-22T12:52:31.555Z,26.91
2022-10-22T12:55:00.661Z,26.98
2022-10-22T12:57:33.424Z,26.96
2022-10-22T13:00:04.628Z,26.95
2022-10-22T13:02:33.098Z,27.24
2022-10-22T13:05:21.344Z,27.34
2022-10-22T13:07:54.755Z,27.04
2022-10-22T13:10:31.227Z,27.21
2022-10-22T13:12:59.311Z,27.37
2022-10-22T13:15:32.815Z,27.51
2022-10-22T13:18:17.219Z,27.30
2022-10-22T13:20:54.968Z,27.29
2022-10-22T13:23:25.550Z,27.07
2022-10-22T13:26:09.672Z,27.26
2022-10-22T13:28:36.857Z,27.21
2022-10-22T13:31:15.975Z,27.06
2022-10-22T13:33:46.017Z,27.42
2022-10-22T13:36:17.472Z,26.79
2022-10-22T13:38:45.275Z,27.05
2022-10-22T13:41:22.774Z,27.19
2022-10-22T13:43:50.653Z,27.54
2022-10-22T13:46:18.366Z,26.89
2022-10-22T13:48:47.131Z,27.03
2022-10-22T13:51:21.842Z,26.83
2022-10-22T13:53:51.792Z,26.73
2022-10-22T13:56:21.848Z,26.82
2022-10-22T13:58:49.212Z,26.81
2022-10-22T14:01:23.671Z,26.85
2022-10-22T14:03:54.075Z,26.75
2022-10-22T14:06:24.685Z,26.67
2022-10-22T14:08:58.721Z,26.76
2022-10-22T14:11:31.694Z,26.92
2022-10-22T14:13:59.649Z,26.89
2022-10-22T14:16:29.146Z,26.44
2022-10-22T14:18:56.933Z,26.57
2022-10-22T14:21:24.294Z,26.60
2022-10-22T14:23:54.891Z,26.71
2022-10-22T14:26:33.364Z,26.58
2022-10-22T14:29:09.347Z,26.24
2022-10-22T14:34:07.288Z,26.31
2022-10-22T14:36:34.418Z,26.41
2022-10-22T14:39:17.989Z,26.40
2022-10-22T14:41:48.688Z,26.66
2022-10-22T14:44:15.856Z,26.50
2022-10-22T14:46:44.563Z,26.24
2022-10-22T14:49:11.938Z,26.31
2022-10-22T14:51:39.481Z,26.62
2022-10-22T14:54:06.707Z,26.34
2022-10-22T14:56:33.955Z,26.28
2022-10-22T14:59:01.239Z,26.21
2022-10-22T15:01:28.443Z,26.34
2022-10-22T15:03:55.502Z,26.32
2022-10-22T15:06:22.695Z,26.41
2022-10-22T15:08:49.949Z,26.33
2022-10-22T15:11:17.326Z,26.30
2022-10-22T15:13:44.855Z,26.26
2022-10-22T15:16:13.800Z,26.49
2022-10-22T15:18:41.062Z,26.50
2022-10-22T15:21:18.931Z,26.25
2022-10-22T15:23:46.464Z,26.29
2022-10-22T15:26:16.187Z,26.15
2022-10-22T15:28:43.567Z,26.31
2022-10-22T15:31:15.832Z,26.40
2022-10-22T15:33:44.043Z,26.43
2022-10-22T15:36:16.823Z,26.29
2022-10-22T15:38:46.333Z,26.25
2022-10-22T15:41:13.925Z,26.33
2022-10-22T15:43:41.219Z,26.27
2022-10-22T15:46:14.685Z,26.22
2022-10-22T15:48:42.295Z,26.48
2022-10-22T15:51:18.200Z,26.19
2022-10-22T15:53:54.055Z,26.11
2022-10-22T15:56:23.401Z,26.21
2022-10-22T15:59:06.218Z,25.99
2022-10-22T16:01:35.284Z,26.41
2022-10-22T16:04:05.679Z,26.09
2022-10-22T16:06:41.399Z,26.28
2022-10-22T16:09:13.942Z,25.96
2022-10-22T16:11:42.254Z,26.27
2022-10-22T16:14:17.014Z,26.37
2022-10-22T16:16:48.283Z,26.29
2022-10-22T16:19:21.303Z,26.07
2022-10-22T16:21:53.873Z,26.05
2022-10-22T16:24:22.096Z,26.12
2022-10-22T16:26:50.059Z,26.50
2022-10-22T16:29:17.457Z,26.23
2022-10-22T16:31:51.867Z,26.03
2022-10-22T16:34:38.189Z,26.18
2022-10-22T16:37:17.351Z,26.47
2022-10-22T16:39:47.405Z,26.27
2022-10-22T16:42:15.011Z,26.16
2022-10-22T16:44:43.778Z,26.30
2022-10-22T16:47:14.928Z,26.17
2022-10-22T17:00:32.279Z,26.28
2022-10-22T17:03:01.641Z,26.30
2022-10-22T17:05:33.497Z,26.30
2022-10-22T17:24:44.738Z,26.21
2022-10-22T17:29:55.860Z,26.43
2022-10-22T17:32:27.858Z,26.62
2022-10-22T17:35:11.264Z,26.63
2022-10-22T17:47:01.909Z,26.74
2022-10-22T17:52:44.227Z,26.44
2022-10-22T17:55:34.681Z,26.81
2022-10-22T17:58:39.198Z,26.67
2022-10-22T18:01:07.054Z,26.71
2022-10-22T18:04:33.326Z,26.58
2022-10-22T18:07:05.677Z,26.95
2022-10-22T18:09:36.122Z,26.44
2022-10-22T18:12:03.664Z,26.45
2022-10-22T18:14:33.450Z,26.51
2022-10-22T18:17:06.015Z,26.83
2022-10-22T18:19:48.967Z,26.52
2022-10-22T18:22:23.782Z,26.79
2022-10-22T18:24:57.611Z,26.64
2022-10-22T18:27:26.237Z,26.67
2022-10-22T18:29:53.341Z,26.84
2022-10-22T18:32:47.867Z,26.52
2022-10-22T18:35:54.721Z,26.52
2022-10-22T18:39:02.160Z,26.62
2022-10-22T18:47:21.194Z,26.52
2022-10-22T19:19:26.011Z,27.03
2022-10-22T19:23:29.088Z,27.08
2022-10-22T19:24:44.480Z,27.08
2022-10-22T19:27:54.101Z,26.71
2022-10-22T19:30:30.919Z,27.00
2022-10-22T19:35:46.855Z,27.09
2022-10-22T19:38:14.251Z,26.81
2022-10-22T19:40:42.413Z,27.14
2022-10-22T19:43:09.576Z,26.82
2022-10-22T19:45:40.880Z,27.00
2022-10-22T19:48:08.071Z,26.99
2022-10-22T19:50:35.463Z,26.83
2022-10-22T19:53:02.755Z,26.55
2022-10-22T19:55:29.909Z,27.02
2022-10-22T20:00:55.930Z,26.94
2022-10-22T20:03:25.534Z,26.75
2022-10-22T20:05:54.543Z,27.05
2022-10-22T20:09:08.998Z,26.88
2022-10-22T20:11:45.576Z,27.00
2022-10-22T20:14:16.212Z,26.63
2022-10-22T20:16:51.367Z,27.02
2022-10-22T20:20:12.690Z,26.79
2022-10-22T20:27:57.688Z,26.65
2022-10-22T20:30:24.736Z,26.81
2022-10-22T20:32:51.810Z,26.91
2022-10-22T20:35:20.640Z,26.51
2022-10-22T20:40:26.913Z,26.96
2022-10-22T20:42:54.003Z,26.56
2022-10-22T20:45:23.601Z,27.06
2022-10-22T20:47:51.721Z,26.63
2022-10-22T20:50:29.950Z,26.68
2022-10-22T20:52:57.153Z,27.01
2022-10-22T20:55:26.887Z,27.04
